Krisjanis Valdemars — V7LI9 — position and weather

sailwx.info

Track history (hours):
 
Tides and Currents Weather Stations Pressure Air Temp Water Temp Dewpoint Dewpoint Depression Visibility Wind Speed Wind Dir Waves Ship Positions

Krisjanis Valdemars

Last reported at 2016-Jun-25 19:25 UTC. Time now 2016-Jun-25 19:45 UTC.
Position N 34°12' E 031°39'.

Length 183 m; draft 10.2 m.

Type: Tanker. MMSI: 538002757.

Date/timePositionNaut miles runAvg speedWind from/ knotsBaromVisibWave heightAir tempDewpointWater temp
2016-Jun-25 19:25N 34°12' E 031°39'2613.5
2016-Jun-25 17:31N 34°23' E 031°11'31912.8
2016-Jun-24 16:33N 37°26' E 025°49'1312.9
2016-Jun-24 15:30N 37°39' E 025°42'1313.5
2016-Jun-24 14:33N 37°51' E 025°36'234 6.6
2016-Jun-23 03:16N 40°51' E 028°49'913.0
2016-Jun-23 02:33N 40°57' E 028°57'  
2016-Jun-20 17:34N 44°05' E 036°28'4113.4
2016-Jun-20 14:30N 44°24' E 037°19'1313.3
2016-Jun-20 13:33N 44°30' E 037°34'1313.0
2016-Jun-20 12:34N 44°38' E 037°49'6 6.1
2016-Jun-20 11:33N 44°44' E 037°47'0 0.2
2016-Jun-20 10:32N 44°44' E 037°47'0 0.0
2016-Jun-20 09:32N 44°44' E 037°47'0 0.0
2016-Jun-20 08:32N 44°44' E 037°47'0 0.0
2016-Jun-20 07:32N 44°44' E 037°47'0 0.0
2016-Jun-20 06:32N 44°44' E 037°47'0 0.0
2016-Jun-20 05:29N 44°44' E 037°47'0 0.0
2016-Jun-20 04:32N 44°44' E 037°47'0 0.0
2016-Jun-20 01:32N 44°44' E 037°47'0 0.0
2016-Jun-20 00:32N 44°44' E 037°47'0 0.0
2016-Jun-19 23:32N 44°44' E 037°47'0 0.0
2016-Jun-19 22:32N 44°44' E 037°47'0 0.0
2016-Jun-19 21:32N 44°44' E 037°47'0 0.0
2016-Jun-19 20:32N 44°44' E 037°47'0 0.0
2016-Jun-19 19:32N 44°44' E 037°47'0 0.0
2016-Jun-19 18:32N 44°44' E 037°47'0 0.0
2016-Jun-19 17:32N 44°44' E 037°47'0 0.0
2016-Jun-19 16:32N 44°44' E 037°47'0 0.0
2016-Jun-19 15:32N 44°44' E 037°47'0 0.0
2016-Jun-19 14:32N 44°44' E 037°47'0 0.0
2016-Jun-19 13:32N 44°44' E 037°47'0 0.0
2016-Jun-19 12:32N 44°44' E 037°47'0 0.0
2016-Jun-19 11:32N 44°44' E 037°47'0 0.0
2016-Jun-19 10:29N 44°44' E 037°47'0 0.0
2016-Jun-19 09:32N 44°44' E 037°47'0 0.0
2016-Jun-19 08:26N 44°44' E 037°47'0 0.0
2016-Jun-19 07:32N 44°44' E 037°47'0 0.0
2016-Jun-19 06:32N 44°44' E 037°47'0 0.0
2016-Jun-19 05:32N 44°44' E 037°47'0 0.0
2016-Jun-19 04:32N 44°44' E 037°47'0 0.0
2016-Jun-19 03:32N 44°44' E 037°47'0 0.0
2016-Jun-19 02:32N 44°44' E 037°47'0 0.0
2016-Jun-19 01:32N 44°44' E 037°47'0 0.0
2016-Jun-19 00:32N 44°44' E 037°47'2 1.8
2016-Jun-18 23:33N 44°42' E 037°49'7 7.3
2016-Jun-18 22:33N 44°35' E 037°52'10 9.7
2016-Jun-18 21:33N 44°29' E 037°41'43713.5
2016-Jun-17 13:13N 40°60' E 028°60'7 9.5
2016-Jun-17 12:31N 40°54' E 028°56'143 6.5
2016-Jun-16 14:31N 39°59' E 026°02'1413.5
2016-Jun-16 13:29N 39°51' E 025°47'4 4.8
2016-Jun-16 12:33N 39°49' E 025°42'0 0.2
2016-Jun-16 11:33N 39°49' E 025°42'5 1.0
2016-Jun-16 06:08N 39°44' E 025°41'11513.4
2016-Jun-15 21:34N 37°49' E 025°40'2813.9
2016-Jun-15 19:34N 37°24' E 025°55'  
Track history (hours):
 
Tides and Currents Weather Stations Pressure Air Temp Water Temp Dewpoint Dewpoint Depression Visibility Wind Speed Wind Dir Waves Ship Positions

Krisjanis Valdemars

Last reported at 2016-Jun-25 19:25 UTC. Time now 2016-Jun-25 19:45 UTC.
Position N 34°12' E 031°39'.

Length 183 m; draft 10.2 m.

Type: Tanker. MMSI: 538002757.

Date/timePositionNaut miles runAvg speedWind from/ knotsBaromVisibWave heightAir tempDewpointWater temp
2016-Jun-25 19:25N 34°12' E 031°39'2613.5
2016-Jun-25 17:31N 34°23' E 031°11'31912.8
2016-Jun-24 16:33N 37°26' E 025°49'1312.9
2016-Jun-24 15:30N 37°39' E 025°42'1313.5
2016-Jun-24 14:33N 37°51' E 025°36'234 6.6
2016-Jun-23 03:16N 40°51' E 028°49'913.0
2016-Jun-23 02:33N 40°57' E 028°57'  
2016-Jun-20 17:34N 44°05' E 036°28'4113.4
2016-Jun-20 14:30N 44°24' E 037°19'1313.3
2016-Jun-20 13:33N 44°30' E 037°34'1313.0
2016-Jun-20 12:34N 44°38' E 037°49'6 6.1
2016-Jun-20 11:33N 44°44' E 037°47'0 0.2
2016-Jun-20 10:32N 44°44' E 037°47'0 0.0
2016-Jun-20 09:32N 44°44' E 037°47'0 0.0
2016-Jun-20 08:32N 44°44' E 037°47'0 0.0
2016-Jun-20 07:32N 44°44' E 037°47'0 0.0
2016-Jun-20 06:32N 44°44' E 037°47'0 0.0
2016-Jun-20 05:29N 44°44' E 037°47'0 0.0
2016-Jun-20 04:32N 44°44' E 037°47'0 0.0
2016-Jun-20 01:32N 44°44' E 037°47'0 0.0
2016-Jun-20 00:32N 44°44' E 037°47'0 0.0
2016-Jun-19 23:32N 44°44' E 037°47'0 0.0
2016-Jun-19 22:32N 44°44' E 037°47'0 0.0
2016-Jun-19 21:32N 44°44' E 037°47'0 0.0
2016-Jun-19 20:32N 44°44' E 037°47'0 0.0
2016-Jun-19 19:32N 44°44' E 037°47'0 0.0
2016-Jun-19 18:32N 44°44' E 037°47'0 0.0
2016-Jun-19 17:32N 44°44' E 037°47'0 0.0
2016-Jun-19 16:32N 44°44' E 037°47'0 0.0
2016-Jun-19 15:32N 44°44' E 037°47'0 0.0
2016-Jun-19 14:32N 44°44' E 037°47'0 0.0
2016-Jun-19 13:32N 44°44' E 037°47'0 0.0
2016-Jun-19 12:32N 44°44' E 037°47'0 0.0
2016-Jun-19 11:32N 44°44' E 037°47'0 0.0
2016-Jun-19 10:29N 44°44' E 037°47'0 0.0
2016-Jun-19 09:32N 44°44' E 037°47'0 0.0
2016-Jun-19 08:26N 44°44' E 037°47'0 0.0
2016-Jun-19 07:32N 44°44' E 037°47'0 0.0
2016-Jun-19 06:32N 44°44' E 037°47'0 0.0
2016-Jun-19 05:32N 44°44' E 037°47'0 0.0
2016-Jun-19 04:32N 44°44' E 037°47'0 0.0
2016-Jun-19 03:32N 44°44' E 037°47'0 0.0
2016-Jun-19 02:32N 44°44' E 037°47'0 0.0
2016-Jun-19 01:32N 44°44' E 037°47'0 0.0
2016-Jun-19 00:32N 44°44' E 037°47'2 1.8
2016-Jun-18 23:33N 44°42' E 037°49'7 7.3
2016-Jun-18 22:33N 44°35' E 037°52'10 9.7
2016-Jun-18 21:33N 44°29' E 037°41'43713.5
2016-Jun-17 13:13N 40°60' E 028°60'7 9.5
2016-Jun-17 12:31N 40°54' E 028°56'143 6.5
2016-Jun-16 14:31N 39°59' E 026°02'1413.5
2016-Jun-16 13:29N 39°51' E 025°47'4 4.8
2016-Jun-16 12:33N 39°49' E 025°42'0 0.2
2016-Jun-16 11:33N 39°49' E 025°42'5 1.0
2016-Jun-16 06:08N 39°44' E 025°41'11513.4
2016-Jun-15 21:34N 37°49' E 025°40'2813.9
2016-Jun-15 19:34N 37°24' E 025°55'  

Dump ship's entire track history